Main page
METAR-TAF:

METAR-TAF

Airports :

Nouakchott–Oumtounsy International Airport

Nouakchott, Mauritania

latitude: 18-18-36N, longitude: 015-58-11W, elevation: 3 m

Current weather observation

The report was made 18 minutes ago, at 22:00 UTC
Wind 9 kt from the North/Northeast
Temperature 20°C
Humidity 35%
Pressure 1017 hPa
Visibility 10 km or more
no clouds below 1500 m and no cumulonimbus

METAR: GQNO 222200Z 02009KT CAVOK 20/04 Q1017 NOSIG

Time: 22:18 (22:18 UTC)

Forecast

The report was made 5 hours and 18 minutes ago, at 17:00 UTC
Forecast valid from 22 at 18 UTC to 23 at 24 UTC
Wind 10 kt from the North/Northeast
Visibility: 8000 m
Becoming
from 23 at 08 UTC to 23 at 11 UTC
Wind 12 kt from the East
Probability 30% :
Temporary
from 23 at 10 UTC to 23 at 14 UTC
Visibility: 4000 m
Blowing dust
Becoming
from 23 at 16 UTC to 23 at 18 UTC
Wind 10 kt from the North

TAF: GQNO 221700Z 2218/2324 02010KT 8000 NSC BECMG 2308/2311 08012KT PROB30 TEMPO 2310/2314 4000 BLDU BECMG 2316/2318 36010KT

Weather observations and forecasts of more than 4000 airports (METAR and TAF reports).

The available stations are represented by yellow and red dots on the map.

Hover mouse over dot to see the name of the station.

Then click to see weather observations and forecasts.

To change the map : click on the green buttons with a black cross to zoom in, on the green button with a dash to zoom out, or on the green arrows for adjacent maps.


METAR-TAF: